Geilenkirchen Air Base

ETNG · North Rhine-Westphalia, 德国

罗盘
风向 的 风向 300° Geilenkirchen Air Base 9/27
风: 10 kt, 3 beaufort

9 kt

5 kt
改变
0 ft 2.000 4.000 6.000 8.000 10.000
Cloud Cloud
FEW 2.000
Cloud Cloud Cloud Cloud Cloud Cloud
BKN 3.500
Cloud Cloud Cloud Cloud Cloud Cloud
BKN 6.000
METAR ETNG 241504Z 30010KT 9999 FEW020CB BKN035 BKN060 07/04 Q1008 TEMPO -SHRA

METAR Geilenkirchen Air Base - ETNG/GKE

Geilenkirchen Air Base是,德国中的中型机场。 该机场位于纬度50,96085和经度6,04175。 该机场有一条跑道: 9/27. 本场的ICAO机场代码为ETNG。 该机场的IATA代码为GKE。 机场在Langen FIR中。

该航空气象观测是针对Geilenkirchen Air Base在2024年4月24日 17:04, 当地时间进行的。

机场观察

风向为300°,速度为10 kt。

可见度为10 km 或者更多。

有几云 积雨云在2.000 ft的高度, 碎云在3.500 ft的高度 和 碎云在6.000 ft的高度。 破损或更高的上限为3.500 ft。

温度为7 °C,阵风为3 °C。 露点为4 °C,相对湿度为81%。 海平面上的气压为1008 hPa (QNH)。

发展趋势

  • 暂时的

    可变方向的风很小或没有。 重大天气:光 阵雨 雨。

白天

今天,太阳从06:21升起,在20:46降落。 这适用于Geilenkirchen Air Base,世界夏令时可能有所不同。 当地时间与世界标准时间之间的时差为+2 小时。 夏令时目前正在进行中。

公司介绍

我们没有关于这个机场的公司信息。

体会

到Vliegles.nl去找飞行课程,跳伞和其他飞行体验。 浏览页面,了解Geilenkirchen Air Base附近所有可用的活动。 你也可以使用搜索功能来寻找你所在地附近的特定飞行课程、跳伞或其他飞行体验。

跑道

Id 标题 侧风 逆风 侧风 %
9/27 091°-271° 5 kt 9 kt 48 %

逆风成分最大的方向会被突出显示,并用于横风计算。 这并不一定意味着这个方向在使用。

乌云

2.000 ft FEW 几云 积雨云
3.500 ft BKN 碎云
6.000 ft BKN 碎云

温度 & 天气

温度 7 °C
露点 4 °C
相对湿度 81%
风寒 3 °C
Kp-index 0 (0-9)

白天

日出
06:21
中午
13:33
日落
20:46 (2:53)

小工具

你想在你的网站上有一个关于Geilenkirchen Air Base的当前航空天气(METAR)的小部件吗?

显示HTML代码
报告变更